Time;durP1;ratioP1;P1;durP2;ratioP2;P2;SDS_P1;SDS_P2;PMS_P1;PMS_P2;Temp;Humidity;BMP_temperature;BMP_pressure;BME280_temperature;BME280_humidity;BME280_pressure;Samples;Min_cycle;Max_cycle;Signal;HPM_P1;HPM_P2
2022/10/04 00:01:47;;;;;;;;;;;;;;;10.96;66.58;96116.25;5049318;28;20014;-67
2022/10/04 00:04:33;;;;;;;;;;;;;;;11.18;66.06;96119.19;5031989;28;20021;-67
2022/10/04 00:07:00;;;;;;;;;;;;;;;11.04;63.23;96118.28;5038809;28;20660;-67
2022/10/04 00:09:33;;;;;;;;;;;;;;;11.24;65.10;96122.59;5046236;28;20187;-67
2022/10/04 00:11:59;;;;;;;;;;;;;;;11.36;64.58;96113.13;5032632;28;20062;-67
2022/10/04 00:14:27;;;;;;;;;;;;;;;11.51;64.28;96114.00;5049373;28;20416;-68
2022/10/04 00:16:53;;;;;;;;;;;;;;;11.59;64.51;96108.84;5049244;28;20041;-68
2022/10/04 00:19:18;;;;;;;;;;;;;;;11.66;64.34;96106.59;5048009;28;20108;-68
2022/10/04 00:21:52;;;;;;;;;;;;;;;11.63;64.53;96098.41;5048870;28;20558;-67
2022/10/04 00:24:31;;;;;;;;;;;;;;;11.55;63.74;96101.72;5049167;28;20108;-68
2022/10/04 00:27:14;;;;;;;;;;;;;;;11.46;63.80;96093.53;5048981;28;20444;-68
2022/10/04 00:29:43;;;;;;;;;;;;;;;11.29;63.65;96088.69;5030008;28;20112;-68
2022/10/04 00:32:23;;;;;;;;;;;;;;;11.18;64.09;96087.22;5048172;28;20043;-67
2022/10/04 00:34:50;;;;;;;;;;;;;;;11.07;64.45;96091.09;5049828;28;20013;-68
2022/10/04 00:37:17;;;;;;;;;;;;;;;10.98;64.48;96109.56;5048797;28;20076;-67
2022/10/04 00:39:44;;;;;;;;;;;;;;;10.89;64.13;96098.72;5048880;28;20021;-67
2022/10/04 00:42:28;;;;;;;;;;;;;;;10.83;64.47;96099.06;5050084;28;20481;-68
2022/10/04 00:45:16;;;;;;;;;;;;;;;10.74;63.63;96096.22;5047965;28;20059;-67
2022/10/04 00:47:44;;;;;;;;;;;;;;;10.63;64.23;96087.53;5021819;28;20029;-67
2022/10/04 00:50:16;;;;;;;;;;;;;;;10.52;64.99;96083.38;5044900;28;20355;-67
2022/10/04 00:52:44;;;;;;;;;;;;;;;10.47;64.63;96080.78;5049771;28;20017;-66
2022/10/04 00:55:17;;;;;;;;;;;;;;;10.17;65.21;96041.91;5048124;28;20013;-69
2022/10/04 00:57:45;;;;;;;;;;;;;;;10.41;65.02;96085.34;5020612;28;20021;-67
2022/10/04 01:00:12;;;;;;;;;;;;;;;10.36;65.04;96084.59;5027287;28;20412;-67
2022/10/04 01:02:42;;;;;;;;;;;;;;;10.33;65.06;96082.47;5039219;28;20063;-67
2022/10/04 01:05:12;;;;;;;;;;;;;;;10.30;65.16;96085.72;5048819;28;20024;-67
2022/10/04 01:07:40;;;;;;;;;;;;;;;10.23;64.88;96088.63;5048796;28;20222;-67
2022/10/04 01:10:18;;;;;;;;;;;;;;;10.20;64.96;96083.91;5048412;28;20021;-67
2022/10/04 01:13:03;;;;;;;;;;;;;;;10.16;64.69;96069.56;5031039;28;20018;-67
2022/10/04 01:15:44;;;;;;;;;;;;;;;10.14;65.00;96071.72;5047012;28;20100;-67
2022/10/04 01:18:09;;;;;;;;;;;;;;;10.07;65.14;96077.34;5049664;28;20017;-67
2022/10/04 01:20:37;;;;;;;;;;;;;;;10.09;65.22;96072.53;5050800;28;20018;-67
2022/10/04 01:23:02;;;;;;;;;;;;;;;10.06;65.54;96072.28;5053747;28;20016;-67
2022/10/04 01:25:43;;;;;;;;;;;;;;;10.03;65.24;96068.34;5050273;28;20017;-67
2022/10/04 01:28:08;;;;;;;;;;;;;;;10.02;65.16;96064.06;5053230;28;20013;-67
2022/10/04 01:30:33;;;;;;;;;;;;;;;10.02;64.78;96065.94;5050564;28;20025;-67
2022/10/04 01:32:59;;;;;;;;;;;;;;;10.03;65.71;96064.88;5052833;28;20040;-68
2022/10/04 01:35:25;;;;;;;;;;;;;;;10.03;65.28;96064.88;5051704;28;20021;-67
2022/10/04 01:37:51;;;;;;;;;;;;;;;9.99;65.57;96063.84;5053156;28;20024;-67
2022/10/04 01:40:16;;;;;;;;;;;;;;;9.97;65.15;96060.66;5051771;28;20017;-67
2022/10/04 01:42:46;;;;;;;;;;;;;;;9.91;65.07;96062.56;5035137;28;20036;-67
2022/10/04 01:45:15;;;;;;;;;;;;;;;9.90;65.26;96059.13;5049393;28;20382;-67
2022/10/04 01:47:47;;;;;;;;;;;;;;;9.86;64.70;96044.78;5053060;28;20009;-67
2022/10/04 01:50:19;;;;;;;;;;;;;;;9.84;64.68;96054.13;5051565;28;20029;-67
2022/10/04 01:52:48;;;;;;;;;;;;;;;9.81;65.69;96050.13;5052760;28;20009;-67
2022/10/04 01:55:15;;;;;;;;;;;;;;;9.79;65.14;96052.28;5050945;28;20067;-67
2022/10/04 01:57:45;;;;;;;;;;;;;;;9.75;65.07;96039.84;5052074;28;20014;-67
2022/10/04 02:00:11;;;;;;;;;;;;;;;9.74;65.42;96030.28;5050605;28;20370;-67
2022/10/04 02:02:46;;;;;;;;;;;;;;;9.79;65.45;96040.88;5052697;28;20049;-67
2022/10/04 02:05:14;;;;;;;;;;;;;;;9.77;65.37;96022.53;5033908;28;20023;-68
2022/10/04 02:07:40;;;;;;;;;;;;;;;9.74;64.73;96028.41;5033982;28;20429;-67
2022/10/04 02:10:09;;;;;;;;;;;;;;;9.69;65.01;96027.66;5029997;28;20567;-67
2022/10/04 02:12:37;;;;;;;;;;;;;;;9.63;65.22;96024.25;5032501;28;20016;-67
2022/10/04 02:15:05;;;;;;;;;;;;;;;9.59;64.89;96020.53;5046094;28;20013;-67
2022/10/04 02:17:34;;;;;;;;;;;;;;;9.67;65.26;96027.91;5052301;28;20013;-67
2022/10/04 02:20:00;;;;;;;;;;;;;;;9.64;64.70;96023.97;5037397;28;20014;-67
2022/10/04 02:22:25;;;;;;;;;;;;;;;9.62;64.94;96025.28;5052336;28;20010;-67
2022/10/04 02:24:52;;;;;;;;;;;;;;;9.62;64.92;96022.63;5051450;28;20013;-67
2022/10/04 02:27:17;;;;;;;;;;;;;;;9.58;65.00;96006.47;5051218;28;20010;-67
2022/10/04 02:29:42;;;;;;;;;;;;;;;9.53;64.77;96011.81;5050452;28;20424;-67
2022/10/04 02:34:53;;;;;;;;;;;;;;;9.48;65.11;96019.03;5051549;28;20083;-67
2022/10/04 02:37:20;;;;;;;;;;;;;;;9.41;64.94;96027.28;5051333;28;20017;-67
2022/10/04 02:40:04;;;;;;;;;;;;;;;9.46;64.80;96029.13;5048816;28;20039;-67
2022/10/04 02:42:32;;;;;;;;;;;;;;;9.29;65.39;96032.94;5034241;28;20111;-67
2022/10/04 02:45:19;;;;;;;;;;;;;;;9.23;65.45;96027.91;5051892;28;20106;-67
2022/10/04 02:48:08;;;;;;;;;;;;;;;9.27;65.59;96029.75;5013526;28;20022;-67
2022/10/04 02:50:36;;;;;;;;;;;;;;;9.29;65.19;96021.50;5047755;28;20017;-67
2022/10/04 02:53:19;;;;;;;;;;;;;;;9.24;65.61;96025.00;5052034;28;20013;-66
2022/10/04 02:55:46;;;;;;;;;;;;;;;9.23;65.36;96018.09;5051062;28;20020;-67
2022/10/04 02:58:14;;;;;;;;;;;;;;;9.34;65.01;96016.19;5051542;28;20013;-66
2022/10/04 03:00:49;;;;;;;;;;;;;;;9.29;65.27;96017.00;5031330;28;20108;-66
2022/10/04 03:03:18;;;;;;;;;;;;;;;9.27;65.10;96019.13;5049420;28;20380;-67
2022/10/04 03:05:46;;;;;;;;;;;;;;;9.30;65.00;96009.81;5050875;28;20056;-67
2022/10/04 03:08:12;;;;;;;;;;;;;;;9.34;65.37;96016.97;5049662;28;20071;-65
2022/10/04 03:10:37;;;;;;;;;;;;;;;9.35;65.40;96010.59;5050565;28;20486;-66
2022/10/04 03:13:03;;;;;;;;;;;;;;;9.32;64.75;96019.13;5050625;28;20067;-66
2022/10/04 03:15:29;;;;;;;;;;;;;;;9.33;65.17;96025.22;5038349;28;20041;-66
2022/10/04 03:17:54;;;;;;;;;;;;;;;9.31;65.06;96019.38;5049152;28;20014;-66
2022/10/04 03:20:22;;;;;;;;;;;;;;;9.31;65.05;96012.19;5050015;28;20072;-66
2022/10/04 03:22:49;;;;;;;;;;;;;;;9.30;64.47;96012.47;5051972;28;20734;-67
2022/10/04 03:25:17;;;;;;;;;;;;;;;9.33;64.73;96017.25;5034569;28;20013;-67
2022/10/04 03:27:43;;;;;;;;;;;;;;;9.31;64.40;96001.56;5032697;28;20064;-67
2022/10/04 03:30:14;;;;;;;;;;;;;;;9.30;64.45;95999.19;5049014;28;20510;-68
2022/10/04 03:32:40;;;;;;;;;;;;;;;9.26;64.97;96006.91;5051035;28;20010;-67
2022/10/04 03:35:21;;;;;;;;;;;;;;;9.27;64.88;96002.41;5047703;28;20052;-67
2022/10/04 03:37:46;;;;;;;;;;;;;;;9.27;64.56;96007.72;5049672;28;20482;-67
2022/10/04 03:40:13;;;;;;;;;;;;;;;9.27;64.63;96008.53;5031899;28;20021;-67
2022/10/04 03:42:39;;;;;;;;;;;;;;;9.27;64.80;96010.38;5028543;28;20025;-70
2022/10/04 03:45:11;;;;;;;;;;;;;;;9.22;65.06;96011.19;5048679;28;20021;-71
2022/10/04 03:47:37;;;;;;;;;;;;;;;9.29;64.56;96002.94;5029879;28;20069;-68
2022/10/04 03:50:13;;;;;;;;;;;;;;;9.25;64.58;96007.97;5030993;28;20029;-67
2022/10/04 03:52:47;;;;;;;;;;;;;;;9.14;64.53;96008.31;5031053;28;20021;-68
2022/10/04 03:55:14;;;;;;;;;;;;;;;9.10;64.61;96013.38;5049389;28;20061;-68
2022/10/04 03:57:40;;;;;;;;;;;;;;;9.08;65.08;96020.81;5050792;28;20010;-69
2022/10/04 04:00:06;;;;;;;;;;;;;;;9.06;65.20;96017.66;5048472;28;20018;-69
2022/10/04 04:02:34;;;;;;;;;;;;;;;9.03;64.72;96020.84;5050075;28;20021;-68
2022/10/04 04:05:00;;;;;;;;;;;;;;;9.04;64.52;96014.47;5048764;28;20059;-69
2022/10/04 04:07:41;;;;;;;;;;;;;;;9.05;64.57;96021.34;5050336;28;20053;-67
2022/10/04 04:10:17;;;;;;;;;;;;;;;9.04;64.85;96019.78;5049145;28;20508;-67
2022/10/04 04:12:51;;;;;;;;;;;;;;;9.04;64.61;96012.59;5050410;28;20020;-67
2022/10/04 04:15:16;;;;;;;;;;;;;;;9.03;64.47;96012.88;5047764;28;20013;-67
2022/10/04 04:17:44;;;;;;;;;;;;;;;9.00;64.36;96008.91;5050465;28;20013;-67
2022/10/04 04:20:16;;;;;;;;;;;;;;;8.97;65.11;96006.81;5048268;28;20016;-67
2022/10/04 04:22:45;;;;;;;;;;;;;;;8.92;64.83;96006.03;5050282;28;20009;-67
2022/10/04 04:25:13;;;;;;;;;;;;;;;8.91;65.21;96001.81;5046482;28;20489;-67
2022/10/04 04:27:40;;;;;;;;;;;;;;;8.91;65.17;96001.81;5049266;28;20013;-67
2022/10/04 04:30:07;;;;;;;;;;;;;;;8.93;64.94;96007.63;5047897;28;20022;-68
2022/10/04 04:32:35;;;;;;;;;;;;;;;8.93;64.72;96012.94;5048893;28;20017;-69
2022/10/04 04:35:09;;;;;;;;;;;;;;;8.93;65.03;96008.41;5048500;28;20052;-67
2022/10/04 04:37:35;;;;;;;;;;;;;;;8.93;65.07;96013.72;5047716;28;20095;-67
2022/10/04 04:40:10;;;;;;;;;;;;;;;8.93;64.53;96013.72;5049479;28;20418;-68
2022/10/04 04:42:36;;;;;;;;;;;;;;;8.92;64.53;96021.94;5030776;28;20036;-67
2022/10/04 04:45:13;;;;;;;;;;;;;;;8.89;64.57;96015.31;5046871;28;20466;-66
2022/10/04 04:47:41;;;;;;;;;;;;;;;8.95;64.94;96010.78;5036380;28;20017;-66
2022/10/04 04:50:10;;;;;;;;;;;;;;;8.98;64.16;96004.94;5047056;28;20026;-65
2022/10/04 04:52:36;;;;;;;;;;;;;;;9.00;64.04;96006.25;5031885;28;20020;-66
2022/10/04 04:55:02;;;;;;;;;;;;;;;8.98;64.31;96007.59;5026885;28;20009;-69
2022/10/04 04:57:27;;;;;;;;;;;;;;;8.90;65.27;96008.94;5049043;28;20017;-69
2022/10/04 04:59:54;;;;;;;;;;;;;;;8.89;65.06;96004.69;5048579;28;20024;-69
2022/10/04 05:02:31;;;;;;;;;;;;;;;9.01;64.73;96007.84;5030387;28;20056;-69
2022/10/04 05:05:09;;;;;;;;;;;;;;;9.04;65.06;96009.16;5029731;28;20016;-69
2022/10/04 05:07:34;;;;;;;;;;;;;;;9.06;64.87;96015.78;5030930;28;20024;-68
2022/10/04 05:09:59;;;;;;;;;;;;;;;9.11;64.52;96007.03;5032660;28;20026;-68
2022/10/04 05:12:25;;;;;;;;;;;;;;;9.13;64.14;96002.22;5052697;28;20041;-69
2022/10/04 05:14:51;;;;;;;;;;;;;;;9.15;63.78;96005.38;5053392;28;20450;-68
2022/10/04 05:17:18;;;;;;;;;;;;;;;9.16;63.90;96012.28;5047999;28;20020;-67
2022/10/04 05:19:45;;;;;;;;;;;;;;;9.22;63.88;96021.03;5039635;28;20018;-67
2022/10/04 05:22:11;;;;;;;;;;;;;;;9.21;63.94;96014.09;5048857;28;20064;-68
2022/10/04 05:24:38;;;;;;;;;;;;;;;9.25;63.71;96012.50;5044179;28;20020;-68
2022/10/04 05:27:06;;;;;;;;;;;;;;;9.26;63.53;96014.09;5037490;28;20555;-64
2022/10/04 05:29:36;;;;;;;;;;;;;;;9.18;63.71;96018.13;5038984;28;20516;-66
2022/10/04 05:32:20;;;;;;;;;;;;;;;9.28;63.68;96017.28;5047379;28;20024;-67
2022/10/04 05:34:47;;;;;;;;;;;;;;;9.41;64.17;96016.66;5028572;28;20446;-67
2022/10/04 05:37:35;;;;;;;;;;;;;;;9.50;64.24;96015.00;5035700;28;20027;-67
2022/10/04 05:40:13;;;;;;;;;;;;;;;9.65;64.36;96011.47;5045785;28;20018;-68
2022/10/04 05:42:44;;;;;;;;;;;;;;;9.83;64.20;96008.16;5047252;28;20017;-69
2022/10/04 05:45:17;;;;;;;;;;;;;;;10.05;64.23;95999.75;5029271;28;20009;-68
2022/10/04 05:47:42;;;;;;;;;;;;;;;10.31;63.32;95996.88;5030609;28;20474;-69
2022/10/04 05:50:16;;;;;;;;;;;;;;;10.53;63.06;95994.53;5029970;28;20047;-66
2022/10/04 05:52:42;;;;;;;;;;;;;;;10.80;62.93;95993.16;5048082;28;20009;-68
2022/10/04 05:55:16;;;;;;;;;;;;;;;10.98;62.44;96000.41;5048813;28;20538;-68
2022/10/04 05:57:57;;;;;;;;;;;;;;;11.17;61.67;96000.44;5048893;28;20103;-65
2022/10/04 06:00:35;;;;;;;;;;;;;;;11.38;61.51;95998.31;5033369;28;20067;-68
2022/10/04 06:03:19;;;;;;;;;;;;;;;11.60;61.56;95995.06;5029801;28;20104;-66
2022/10/04 06:05:56;;;;;;;;;;;;;;;11.85;60.72;96000.03;5030191;28;20017;-66
2022/10/04 06:08:40;;;;;;;;;;;;;;;12.09;60.27;96001.81;5050032;28;20512;-69
2022/10/04 06:11:23;;;;;;;;;;;;;;;12.30;60.18;96004.91;5047213;28;20013;-65
2022/10/04 06:13:58;;;;;;;;;;;;;;;12.47;60.10;96013.13;5045819;28;20021;-67
2022/10/04 06:16:37;;;;;;;;;;;;;;;12.63;59.39;96021.66;5040122;28;20047;-68
2022/10/04 06:19:02;;;;;;;;;;;;;;;12.62;58.73;96007.53;5051805;28;20516;-68
2022/10/04 06:21:28;;;;;;;;;;;;;;;12.63;58.79;95995.75;5035409;28;20017;-68
2022/10/04 06:23:59;;;;;;;;;;;;;;;12.64;58.35;95999.22;5052536;28;20013;-68
2022/10/04 06:26:29;;;;;;;;;;;;;;;12.59;58.30;96020.66;5034580;28;20021;-68
2022/10/04 06:28:57;;;;;;;;;;;;;;;12.51;58.83;96010.69;5051468;28;20082;-68
2022/10/04 06:31:43;;;;;;;;;;;;;;;12.48;58.90;96015.50;5050360;28;20485;-69
2022/10/04 06:34:11;;;;;;;;;;;;;;;12.48;59.77;96014.72;5034653;28;20434;-70
2022/10/04 06:36:45;;;;;;;;;;;;;;;12.47;59.59;96016.59;5034272;28;20064;-69
2022/10/04 06:39:23;;;;;;;;;;;;;;;12.54;59.46;96018.91;5051948;28;20040;-69
2022/10/04 06:42:07;;;;;;;;;;;;;;;12.63;59.71;96011.78;5051488;28;20071;-69
2022/10/04 06:44:36;;;;;;;;;;;;;;;12.72;59.62;96011.88;5034251;28;20021;-70
2022/10/04 06:47:20;;;;;;;;;;;;;;;12.89;59.54;96011.28;5034084;28;20091;-70
2022/10/04 06:49:53;;;;;;;;;;;;;;;13.11;59.41;96008.72;5032965;28;20386;-69
2022/10/04 06:52:37;;;;;;;;;;;;;;;13.33;58.65;96010.69;5034024;28;20063;-69
2022/10/04 06:55:02;;;;;;;;;;;;;;;13.54;57.97;96005.69;5051925;28;20010;-72
2022/10/04 06:57:53;;;;;;;;;;;;;;;13.77;57.92;96001.19;5033979;28;20020;-70
2022/10/04 07:00:25;;;;;;;;;;;;;;;14.13;57.70;96011.06;5032769;28;20496;-69
2022/10/04 07:02:51;;;;;;;;;;;;;;;14.42;56.89;96002.53;5033594;28;20124;-69
2022/10/04 07:05:20;;;;;;;;;;;;;;;14.66;56.33;96003.03;5051564;28;20120;-69
2022/10/04 07:07:49;;;;;;;;;;;;;;;14.87;55.37;96000.56;5051672;28;20053;-70
2022/10/04 07:10:29;;;;;;;;;;;;;;;15.08;56.12;95993.53;5031007;28;20018;-69
2022/10/04 07:13:05;;;;;;;;;;;;;;;15.29;54.83;95993.75;5051704;28;20024;-69
2022/10/04 07:15:43;;;;;;;;;;;;;;;15.52;54.92;95997.09;5050938;28;20017;-70
2022/10/04 07:18:12;;;;;;;;;;;;;;;15.77;54.35;96002.84;5051048;28;20016;-69
2022/10/04 07:20:38;;;;;;;;;;;;;;;15.89;53.17;95999.50;5050843;28;20061;-70
2022/10/04 07:23:15;;;;;;;;;;;;;;;16.04;53.51;96009.75;5051632;28;20053;-70
2022/10/04 07:25:47;;;;;;;;;;;;;;;16.18;53.02;96006.91;5051287;28;20131;-70
2022/10/04 07:31:12;;;;;;;;;;;;;;;16.47;52.09;96020.41;5050847;28;20091;-70
2022/10/04 07:33:47;;;;;;;;;;;;;;;16.56;51.96;96020.41;5049176;28;20424;-70
2022/10/04 07:36:16;;;;;;;;;;;;;;;16.76;52.45;96018.97;5049605;28;20027;-69
2022/10/04 07:38:53;;;;;;;;;;;;;;;16.96;52.28;96025.53;5049704;28;20035;-70
2022/10/04 07:41:25;;;;;;;;;;;;;;;17.13;51.42;96015.47;5050937;28;20549;-70
2022/10/04 07:43:55;;;;;;;;;;;;;;;17.32;51.04;96022.34;5033098;28;20013;-70
2022/10/04 07:46:39;;;;;;;;;;;;;;;17.53;51.23;96020.47;5020836;28;20059;-71
2022/10/04 07:49:11;;;;;;;;;;;;;;;17.68;50.47;96021.78;5025067;28;20028;-70
2022/10/04 07:51:43;;;;;;;;;;;;;;;17.75;50.36;96022.06;5050311;28;20056;-70
2022/10/04 07:54:15;;;;;;;;;;;;;;;17.79;50.91;96023.00;5030742;28;20010;-70
2022/10/04 07:56:46;;;;;;;;;;;;;;;17.75;50.57;96032.84;5030806;28;20014;-70
2022/10/04 07:59:36;;;;;;;;;;;;;;;17.65;49.91;96035.88;5042972;28;20101;-71
2022/10/04 08:02:14;;;;;;;;;;;;;;;17.68;50.23;96044.09;5050814;28;20347;-71
2022/10/04 08:05:00;;;;;;;;;;;;;;;17.76;50.64;96045.19;5049609;28;20028;-71
2022/10/04 08:07:31;;;;;;;;;;;;;;;17.66;50.35;96042.88;5050369;28;20020;-71
2022/10/04 08:10:15;;;;;;;;;;;;;;;17.66;50.76;96038.28;5049363;28;20115;-71
2022/10/04 08:12:59;;;;;;;;;;;;;;;17.68;50.16;96037.94;5049664;28;20024;-70
2022/10/04 08:15:32;;;;;;;;;;;;;;;17.70;49.78;96038.38;5050572;28;20511;-71
2022/10/04 08:18:06;;;;;;;;;;;;;;;17.56;49.75;96041.34;5032841;28;20112;-71
2022/10/04 08:20:34;;;;;;;;;;;;;;;17.93;49.83;96041.59;5048854;28;20539;-71
2022/10/04 08:23:20;;;;;;;;;;;;;;;18.28;49.29;96036.69;5028535;28;20054;-71
2022/10/04 08:25:48;;;;;;;;;;;;;;;18.35;47.97;96036.94;5044581;28;20021;-71
2022/10/04 08:31:25;;;;;;;;;;;;;;;18.78;48.06;96048.41;5048008;28;20480;-72
2022/10/04 08:33:53;;;;;;;;;;;;;;;18.78;47.23;96045.72;5050031;28;20502;-71
2022/10/04 08:36:41;;;;;;;;;;;;;;;18.76;46.92;96046.06;5032018;28;20056;-72
2022/10/04 08:39:19;;;;;;;;;;;;;;;18.67;46.22;96037.25;5049727;28;20504;-71
2022/10/04 08:41:50;;;;;;;;;;;;;;;18.72;46.18;96044.38;5031460;28;20013;-72
2022/10/04 08:44:36;;;;;;;;;;;;;;;18.55;46.35;96037.22;5049852;28;20534;-72
2022/10/04 08:47:02;;;;;;;;;;;;;;;18.89;46.36;96036.09;5041357;28;20021;-72
2022/10/04 08:49:51;;;;;;;;;;;;;;;19.15;46.38;96036.56;5049473;28;20049;-72
2022/10/04 08:52:16;;;;;;;;;;;;;;;19.43;45.79;96028.56;5030481;28;20014;-73
2022/10/04 08:54:41;;;;;;;;;;;;;;;19.45;45.19;96030.94;5031108;28;20020;-73
2022/10/04 08:57:22;;;;;;;;;;;;;;;19.77;45.33;96025.75;5049914;28;20347;-72
2022/10/04 08:59:50;;;;;;;;;;;;;;;19.69;44.75;96032.84;5031454;28;20385;-72
2022/10/04 09:02:34;;;;;;;;;;;;;;;19.97;44.99;96033.69;5032295;28;20021;-72
2022/10/04 09:05:05;;;;;;;;;;;;;;;20.19;44.71;96023.47;5049055;28;20013;-73
2022/10/04 09:07:47;;;;;;;;;;;;;;;20.32;43.83;96016.91;5048927;28;20490;-72
2022/10/04 09:10:15;;;;;;;;;;;;;;;20.44;43.63;96022.25;5031076;28;20022;-72
2022/10/04 09:12:41;;;;;;;;;;;;;;;20.60;43.55;96019.59;5030864;28;20018;-72
2022/10/04 09:15:12;;;;;;;;;;;;;;;20.59;43.35;96019.94;5030799;28;20014;-71
2022/10/04 09:17:52;;;;;;;;;;;;;;;20.71;43.02;96017.94;5048979;28;20014;-72
2022/10/04 09:20:31;;;;;;;;;;;;;;;20.49;43.19;96026.63;5031429;28;20493;-72
2022/10/04 09:23:15;;;;;;;;;;;;;;;20.84;42.90;96023.28;5031855;28;20112;-71
2022/10/04 09:25:40;;;;;;;;;;;;;;;20.76;42.06;96023.09;5048391;28;20013;-72
2022/10/04 09:28:16;;;;;;;;;;;;;;;20.97;42.03;96030.19;5031740;28;20484;-72
2022/10/04 09:30:41;;;;;;;;;;;;;;;21.16;41.37;96032.19;5031448;28;20573;-72
2022/10/04 09:33:12;;;;;;;;;;;;;;;21.14;41.44;96012.81;5046283;28;20108;-72
2022/10/04 09:35:56;;;;;;;;;;;;;;;21.19;41.30;96018.75;5011755;28;20029;-72
2022/10/04 09:38:44;;;;;;;;;;;;;;;21.27;40.74;96012.34;5043569;28;20114;-73
2022/10/04 09:41:21;;;;;;;;;;;;;;;21.38;40.96;96018.03;5051040;28;20021;-73
2022/10/04 09:44:05;;;;;;;;;;;;;;;21.53;41.18;96017.22;5053190;28;20473;-72
2022/10/04 09:46:30;;;;;;;;;;;;;;;21.74;40.88;96014.19;5053119;28;20462;-72
2022/10/04 09:48:55;;;;;;;;;;;;;;;21.76;41.00;96017.34;5052221;28;20021;-72
2022/10/04 09:51:22;;;;;;;;;;;;;;;21.86;40.80;96010.59;5053001;28;20010;-73
2022/10/04 09:54:00;;;;;;;;;;;;;;;21.99;40.51;96016.66;5042731;28;20017;-73
2022/10/04 09:56:33;;;;;;;;;;;;;;;22.12;40.62;96022.75;5033215;28;20079;-73
2022/10/04 09:59:06;;;;;;;;;;;;;;;22.25;40.46;96021.47;5050299;28;20374;-72
2022/10/04 10:01:49;;;;;;;;;;;;;;;22.36;39.98;96025.16;5051910;28;20009;-73
2022/10/04 10:04:20;;;;;;;;;;;;;;;21.93;40.28;96028.91;5049969;28;20057;-73
2022/10/04 10:06:54;;;;;;;;;;;;;;;22.28;39.89;96018.03;5052861;28;20009;-72
2022/10/04 10:15:33;;;;;;;;;;;;;;;21.16;42.03;96013.25;5051955;28;20116;-73
2022/10/04 10:18:15;;;;;;;;;;;;;;;21.96;40.73;96020.09;5029202;28;20014;-72
2022/10/04 10:20:52;;;;;;;;;;;;;;;22.34;40.34;96016.63;5052090;28;20021;-72
2022/10/04 10:23:52;;;;;;;;;;;;;;;22.34;40.43;96021.25;5052680;28;20014;-73
2022/10/04 10:26:21;;;;;;;;;;;;;;;22.48;39.00;96021.53;4951989;28;20020;-72
2022/10/04 10:29:10;;;;;;;;;;;;;;;22.73;39.29;96020.06;5016901;28;21098;-73
2022/10/04 10:31:55;;;;;;;;;;;;;;;22.53;40.01;96019.31;5024410;28;20014;-72
2022/10/04 10:34:20;;;;;;;;;;;;;;;22.72;39.44;96032.03;5037071;28;20068;-72
2022/10/04 10:36:59;;;;;;;;;;;;;;;22.83;39.07;96032.25;5052306;28;20037;-73
2022/10/04 10:39:48;;;;;;;;;;;;;;;22.92;39.24;96034.72;5034244;28;20025;-72
2022/10/04 10:42:31;;;;;;;;;;;;;;;21.99;39.27;96041.03;5034452;28;20017;-73
2022/10/04 10:45:15;;;;;;;;;;;;;;;22.25;39.60;96033.09;5033570;28;20428;-72
2022/10/04 10:47:55;;;;;;;;;;;;;;;21.44;40.57;96035.56;5034134;28;20409;-72
2022/10/04 10:50:57;;;;;;;;;;;;;;;20.84;41.99;96034.91;5033721;28;20025;-73
2022/10/04 10:53:31;;;;;;;;;;;;;;;21.33;41.44;96039.97;5033586;28;20013;-73
2022/10/04 10:56:07;;;;;;;;;;;;;;;21.22;41.16;96039.69;5033388;28;20024;-72
2022/10/04 10:59:05;;;;;;;;;;;;;;;20.42;42.12;96048.03;5076783;22;20151;-65
2022/10/04 11:01:49;;;;;;;;;;;;;;;20.25;42.57;96049.91;5044748;28;20017;-65
2022/10/04 11:04:14;;;;;;;;;;;;;;;20.71;41.80;96050.38;5067198;28;20052;-65
2022/10/04 11:07:12;;;;;;;;;;;;;;;20.89;41.31;96033.84;5069171;28;20102;-65
2022/10/04 11:09:41;;;;;;;;;;;;;;;20.95;41.68;96040.56;5064931;28;20742;-66
2022/10/04 11:12:24;;;;;;;;;;;;;;;21.20;40.67;96035.78;5069377;28;20116;-66
2022/10/04 11:15:28;;;;;;;;;;;;;;;21.62;40.05;96025.16;5064958;28;20067;-65
2022/10/04 11:18:12;;;;;;;;;;;;;;;21.92;39.33;96016.53;5066926;28;20035;-65
2022/10/04 11:20:58;;;;;;;;;;;;;;;22.03;39.09;96026.44;5066681;28;20119;-65
2022/10/04 11:23:37;;;;;;;;;;;;;;;22.16;38.58;96016.28;5066130;28;20017;-65
2022/10/04 11:26:08;;;;;;;;;;;;;;;22.38;38.63;96019.41;5067859;28;20066;-65
2022/10/04 11:28:45;;;;;;;;;;;;;;;22.18;38.57;96024.81;5065963;28;20053;-65
2022/10/04 11:31:24;;;;;;;;;;;;;;;22.05;39.31;96024.13;5081484;28;20012;-65
2022/10/04 11:33:59;;;;;;;;;;;;;;;22.20;39.13;96013.63;5067406;28;20429;-65
2022/10/04 11:36:47;;;;;;;;;;;;;;;22.48;38.70;96008.75;5066513;28;20480;-65
2022/10/04 11:39:29;;;;;;;;;;;;;;;22.44;38.05;96013.31;5035290;28;20063;-65
2022/10/04 11:42:00;;;;;;;;;;;;;;;22.63;38.06;96009.03;5066971;28;20040;-65
2022/10/04 11:44:46;;;;;;;;;;;;;;;22.96;37.51;96006.50;5067134;28;20017;-65
2022/10/04 11:47:25;;;;;;;;;;;;;;;22.77;36.65;96007.31;5066888;28;20420;-65
2022/10/04 11:50:01;;;;;;;;;;;;;;;22.69;36.79;96007.56;5065211;28;20017;-65
2022/10/04 11:52:46;;;;;;;;;;;;;;;22.85;37.18;96010.94;5065810;28;20057;-65
2022/10/04 11:55:30;;;;;;;;;;;;;;;22.95;36.72;96004.94;5066086;28;20056;-65
2022/10/04 11:57:55;;;;;;;;;;;;;;;23.32;35.40;95997.00;5070411;28;20018;-66
2022/10/04 12:00:22;;;;;;;;;;;;;;;23.50;35.44;95991.84;5068877;28;20104;-65
2022/10/04 12:02:56;;;;;;;;;;;;;;;23.66;34.86;95994.41;5070438;28;20052;-65
2022/10/04 12:05:40;;;;;;;;;;;;;;;23.73;34.16;95996.44;5070361;28;20035;-65
2022/10/04 12:08:23;;;;;;;;;;;;;;;23.39;35.47;95995.53;5069419;28;20067;-65
2022/10/04 12:11:07;;;;;;;;;;;;;;;22.56;36.69;95994.16;5068682;28;20516;-65
2022/10/04 12:13:50;;;;;;;;;;;;;;;22.62;37.15;95993.88;5070215;28;20008;-65
2022/10/04 12:16:34;;;;;;;;;;;;;;;22.12;35.93;95987.53;5070356;28;20016;-65
2022/10/04 12:19:06;;;;;;;;;;;;;;;22.48;35.64;95986.28;5068820;28;20024;-65
2022/10/04 12:21:46;;;;;;;;;;;;;;;22.53;36.26;95977.84;5069832;28;20459;-65
2022/10/04 12:24:20;;;;;;;;;;;;;;;21.88;37.11;95973.09;5069839;28;20015;-65
2022/10/04 12:26:53;;;;;;;;;;;;;;;22.24;37.66;95969.19;5068959;28;20042;-65
2022/10/04 12:29:31;;;;;;;;;;;;;;;22.49;37.46;95975.06;5069467;28;20072;-65
2022/10/04 12:31:58;;;;;;;;;;;;;;;22.46;36.91;95972.28;5070068;28;20013;-65
2022/10/04 12:34:28;;;;;;;;;;;;;;;22.53;37.33;95972.44;5069897;28;20465;-65
2022/10/04 12:36:54;;;;;;;;;;;;;;;22.42;36.71;95971.44;5068993;28;20016;-65
2022/10/04 12:39:37;;;;;;;;;;;;;;;22.58;35.59;95966.72;5067767;28;20013;-65
2022/10/04 12:42:11;;;;;;;;;;;;;;;22.71;35.24;95970.00;5069049;28;20469;-65
2022/10/04 12:44:39;;;;;;;;;;;;;;;22.45;34.58;95968.00;5064520;28;20021;-65
2022/10/04 12:47:05;;;;;;;;;;;;;;;21.94;35.49;95962.75;5070015;28;20020;-65
2022/10/04 12:49:49;;;;;;;;;;;;;;;21.73;36.40;95976.66;5069330;28;20013;-65
2022/10/04 12:52:20;;;;;;;;;;;;;;;21.72;37.05;95975.09;5067426;28;20013;-64
2022/10/04 12:55:01;;;;;;;;;;;;;;;21.83;36.47;95967.97;5069720;28;20032;-65
2022/10/04 12:57:44;;;;;;;;;;;;;;;21.82;36.81;95961.00;5067193;28;20032;-65
2022/10/04 13:00:21;;;;;;;;;;;;;;;21.97;36.83;95962.06;5069057;28;20013;-65
2022/10/04 13:02:59;;;;;;;;;;;;;;;21.85;37.62;95959.47;5069522;28;20037;-65
2022/10/04 13:05:24;;;;;;;;;;;;;;;21.91;37.31;95955.38;5069868;28;20062;-65
2022/10/04 13:07:55;;;;;;;;;;;;;;;21.61;37.45;95952.44;5067347;28;20021;-65
2022/10/04 13:10:23;;;;;;;;;;;;;;;21.26;38.33;95953.19;5069077;28;20039;-65
2022/10/04 13:13:09;;;;;;;;;;;;;;;21.25;38.73;95947.00;5068488;28;20018;-65
2022/10/04 13:15:47;;;;;;;;;;;;;;;21.33;38.90;95947.16;5068902;28;20016;-65
2022/10/04 13:18:18;;;;;;;;;;;;;;;21.42;38.87;95953.97;5072087;28;20599;-65
2022/10/04 13:20:44;;;;;;;;;;;;;;;21.39;39.86;95948.47;5073145;28;20366;-64
2022/10/04 13:23:15;;;;;;;;;;;;;;;20.72;39.87;95937.63;5073235;28;20014;-65
2022/10/04 13:25:53;;;;;;;;;;;;;;;21.14;39.19;95943.28;5072220;28;20006;-65
2022/10/04 13:28:32;;;;;;;;;;;;;;;21.26;38.44;95945.84;5072919;28;20421;-65
2022/10/04 13:31:03;;;;;;;;;;;;;;;21.12;39.18;95940.13;5072988;28;20079;-65
2022/10/04 13:33:28;;;;;;;;;;;;;;;21.25;39.24;95941.59;5073049;28;20010;-66
2022/10/04 13:36:03;;;;;;;;;;;;;;;21.21;38.85;95943.41;5072206;28;20021;-65
2022/10/04 13:38:38;;;;;;;;;;;;;;;21.31;39.52;95944.81;5072676;28;20016;-65